sensor_id;sensor_type;location;lat;lon;timestamp;temperature;humidity
17740;DHT22;8990;33.226;-97.150;2022-12-29T00:01:08;18.40;99.90
17740;DHT22;8990;33.226;-97.150;2022-12-29T00:03:37;18.40;99.90
17740;DHT22;8990;33.226;-97.150;2022-12-29T00:06:09;18.30;99.90
17740;DHT22;8990;33.226;-97.150;2022-12-29T00:08:39;18.20;99.90
17740;DHT22;8990;33.226;-97.150;2022-12-29T00:11:09;18.20;99.90
17740;DHT22;8990;33.226;-97.150;2022-12-29T00:13:39;18.20;99.90
17740;DHT22;8990;33.226;-97.150;2022-12-29T00:16:26;18.20;99.90
17740;DHT22;8990;33.226;-97.150;2022-12-29T00:18:57;18.10;99.90
17740;DHT22;8990;33.226;-97.150;2022-12-29T00:21:28;18.10;99.90
17740;DHT22;8990;33.226;-97.150;2022-12-29T00:24:16;18.10;99.90
17740;DHT22;8990;33.226;-97.150;2022-12-29T00:27:11;18.10;99.90
17740;DHT22;8990;33.226;-97.150;2022-12-29T00:29:59;18.10;99.90
17740;DHT22;8990;33.226;-97.150;2022-12-29T00:32:45;18.00;99.90
17740;DHT22;8990;33.226;-97.150;2022-12-29T00:35:35;18.00;99.90
17740;DHT22;8990;33.226;-97.150;2022-12-29T00:38:11;18.00;99.90
17740;DHT22;8990;33.226;-97.150;2022-12-29T00:41:05;17.90;99.90
17740;DHT22;8990;33.226;-97.150;2022-12-29T00:43:51;17.90;99.90
17740;DHT22;8990;33.226;-97.150;2022-12-29T00:46:33;18.00;99.90
17740;DHT22;8990;33.226;-97.150;2022-12-29T00:49:04;18.00;99.90
17740;DHT22;8990;33.226;-97.150;2022-12-29T00:51:51;18.00;99.90
17740;DHT22;8990;33.226;-97.150;2022-12-29T00:54:24;18.00;99.90
17740;DHT22;8990;33.226;-97.150;2022-12-29T00:56:54;18.00;99.90
17740;DHT22;8990;33.226;-97.150;2022-12-29T00:59:24;18.00;99.90
17740;DHT22;8990;33.226;-97.150;2022-12-29T01:01:54;18.00;99.90
17740;DHT22;8990;33.226;-97.150;2022-12-29T01:04:25;18.00;99.90
17740;DHT22;8990;33.226;-97.150;2022-12-29T01:06:54;18.10;99.90
17740;DHT22;8990;33.226;-97.150;2022-12-29T01:09:25;18.10;99.90
17740;DHT22;8990;33.226;-97.150;2022-12-29T01:12:13;18.10;99.90
17740;DHT22;8990;33.226;-97.150;2022-12-29T01:14:43;18.20;99.90
17740;DHT22;8990;33.226;-97.150;2022-12-29T01:17:13;18.20;99.90
17740;DHT22;8990;33.226;-97.150;2022-12-29T01:19:43;18.20;99.90
17740;DHT22;8990;33.226;-97.150;2022-12-29T01:22:12;18.20;99.90
17740;DHT22;8990;33.226;-97.150;2022-12-29T01:24:43;18.20;99.90
17740;DHT22;8990;33.226;-97.150;2022-12-29T01:27:13;18.20;99.90
17740;DHT22;8990;33.226;-97.150;2022-12-29T01:29:42;18.20;99.90
17740;DHT22;8990;33.226;-97.150;2022-12-29T01:32:13;18.30;99.90
17740;DHT22;8990;33.226;-97.150;2022-12-29T01:34:43;18.30;99.90
17740;DHT22;8990;33.226;-97.150;2022-12-29T01:37:12;18.30;99.90
17740;DHT22;8990;33.226;-97.150;2022-12-29T01:39:44;18.40;99.90
17740;DHT22;8990;33.226;-97.150;2022-12-29T01:42:16;18.40;99.90
17740;DHT22;8990;33.226;-97.150;2022-12-29T01:44:53;18.30;99.90
17740;DHT22;8990;33.226;-97.150;2022-12-29T01:47:30;18.30;99.90
17740;DHT22;8990;33.226;-97.150;2022-12-29T01:50:03;18.30;99.90
17740;DHT22;8990;33.226;-97.150;2022-12-29T01:52:36;18.20;99.90
17740;DHT22;8990;33.226;-97.150;2022-12-29T01:55:10;18.20;99.90
17740;DHT22;8990;33.226;-97.150;2022-12-29T01:57:42;18.20;99.90
17740;DHT22;8990;33.226;-97.150;2022-12-29T02:00:15;18.10;99.90
17740;DHT22;8990;33.226;-97.150;2022-12-29T02:02:50;18.10;99.90
17740;DHT22;8990;33.226;-97.150;2022-12-29T02:05:25;18.00;99.90
17740;DHT22;8990;33.226;-97.150;2022-12-29T02:07:58;18.00;99.90
17740;DHT22;8990;33.226;-97.150;2022-12-29T02:10:31;18.00;99.90
17740;DHT22;8990;33.226;-97.150;2022-12-29T02:13:03;17.90;99.90
17740;DHT22;8990;33.226;-97.150;2022-12-29T02:15:39;17.90;99.90
17740;DHT22;8990;33.226;-97.150;2022-12-29T02:18:22;17.80;99.90
17740;DHT22;8990;33.226;-97.150;2022-12-29T02:24:20;17.80;99.90
17740;DHT22;8990;33.226;-97.150;2022-12-29T02:30:45;17.60;99.90
17740;DHT22;8990;33.226;-97.150;2022-12-29T02:33:27;17.60;99.90
17740;DHT22;8990;33.226;-97.150;2022-12-29T02:36:10;17.50;99.90
17740;DHT22;8990;33.226;-97.150;2022-12-29T02:38:52;17.50;99.90
17740;DHT22;8990;33.226;-97.150;2022-12-29T02:41:31;17.40;99.90
17740;DHT22;8990;33.226;-97.150;2022-12-29T02:44:07;17.40;99.90
17740;DHT22;8990;33.226;-97.150;2022-12-29T02:46:47;17.40;99.90
17740;DHT22;8990;33.226;-97.150;2022-12-29T02:49:25;17.30;99.90
17740;DHT22;8990;33.226;-97.150;2022-12-29T02:51:59;17.30;99.90
17740;DHT22;8990;33.226;-97.150;2022-12-29T02:54:30;17.30;99.90
17740;DHT22;8990;33.226;-97.150;2022-12-29T02:57:29;17.30;99.90
17740;DHT22;8990;33.226;-97.150;2022-12-29T03:00:05;17.20;99.90
17740;DHT22;8990;33.226;-97.150;2022-12-29T03:05:42;17.10;99.90
17740;DHT22;8990;33.226;-97.150;2022-12-29T03:08:24;17.10;99.90
17740;DHT22;8990;33.226;-97.150;2022-12-29T03:11:01;17.10;99.90
17740;DHT22;8990;33.226;-97.150;2022-12-29T03:13:35;17.10;99.90
17740;DHT22;8990;33.226;-97.150;2022-12-29T03:16:31;17.10;99.90
17740;DHT22;8990;33.226;-97.150;2022-12-29T03:19:06;17.00;99.90
17740;DHT22;8990;33.226;-97.150;2022-12-29T03:21:43;17.00;99.90
17740;DHT22;8990;33.226;-97.150;2022-12-29T03:24:40;17.00;99.90
17740;DHT22;8990;33.226;-97.150;2022-12-29T03:27:14;17.00;99.90
17740;DHT22;8990;33.226;-97.150;2022-12-29T03:29:48;17.00;99.90
17740;DHT22;8990;33.226;-97.150;2022-12-29T03:32:24;17.10;99.90
17740;DHT22;8990;33.226;-97.150;2022-12-29T03:34:57;17.10;99.90
17740;DHT22;8990;33.226;-97.150;2022-12-29T03:37:31;17.10;99.90
17740;DHT22;8990;33.226;-97.150;2022-12-29T03:40:06;17.00;99.90
17740;DHT22;8990;33.226;-97.150;2022-12-29T03:42:36;17.00;99.90
17740;DHT22;8990;33.226;-97.150;2022-12-29T03:45:10;16.90;99.90
17740;DHT22;8990;33.226;-97.150;2022-12-29T03:47:40;17.00;99.90
17740;DHT22;8990;33.226;-97.150;2022-12-29T03:50:12;16.90;99.90
17740;DHT22;8990;33.226;-97.150;2022-12-29T03:52:43;16.90;99.90
17740;DHT22;8990;33.226;-97.150;2022-12-29T03:55:12;16.90;99.90
17740;DHT22;8990;33.226;-97.150;2022-12-29T03:57:41;16.80;99.90
17740;DHT22;8990;33.226;-97.150;2022-12-29T04:00:16;16.80;99.90
17740;DHT22;8990;33.226;-97.150;2022-12-29T04:02:49;16.80;99.90
17740;DHT22;8990;33.226;-97.150;2022-12-29T04:05:24;16.80;99.90
17740;DHT22;8990;33.226;-97.150;2022-12-29T04:07:55;16.80;99.90
17740;DHT22;8990;33.226;-97.150;2022-12-29T04:10:25;16.80;99.90
17740;DHT22;8990;33.226;-97.150;2022-12-29T04:12:59;16.80;99.90
17740;DHT22;8990;33.226;-97.150;2022-12-29T04:15:28;16.80;99.90
17740;DHT22;8990;33.226;-97.150;2022-12-29T04:17:58;16.80;99.90
17740;DHT22;8990;33.226;-97.150;2022-12-29T04:20:30;16.80;99.90
17740;DHT22;8990;33.226;-97.150;2022-12-29T04:23:17;16.80;99.90
17740;DHT22;8990;33.226;-97.150;2022-12-29T04:25:48;16.80;99.90
17740;DHT22;8990;33.226;-97.150;2022-12-29T04:28:17;16.80;99.90
17740;DHT22;8990;33.226;-97.150;2022-12-29T04:30:53;16.80;99.90
17740;DHT22;8990;33.226;-97.150;2022-12-29T04:33:35;16.80;99.90
17740;DHT22;8990;33.226;-97.150;2022-12-29T04:36:06;16.80;99.90
17740;DHT22;8990;33.226;-97.150;2022-12-29T04:38:38;16.80;99.90
17740;DHT22;8990;33.226;-97.150;2022-12-29T04:41:09;16.80;99.90
17740;DHT22;8990;33.226;-97.150;2022-12-29T04:43:41;16.80;99.90
17740;DHT22;8990;33.226;-97.150;2022-12-29T04:46:34;16.90;99.90
17740;DHT22;8990;33.226;-97.150;2022-12-29T04:49:09;16.90;99.90
17740;DHT22;8990;33.226;-97.150;2022-12-29T04:51:53;16.90;99.90
17740;DHT22;8990;33.226;-97.150;2022-12-29T04:54:24;16.90;99.90
17740;DHT22;8990;33.226;-97.150;2022-12-29T04:57:06;17.00;99.90
17740;DHT22;8990;33.226;-97.150;2022-12-29T04:59:38;17.00;99.90
17740;DHT22;8990;33.226;-97.150;2022-12-29T05:02:09;17.00;99.90
17740;DHT22;8990;33.226;-97.150;2022-12-29T05:04:39;17.00;99.90
17740;DHT22;8990;33.226;-97.150;2022-12-29T05:07:10;17.00;99.90
17740;DHT22;8990;33.226;-97.150;2022-12-29T05:09:39;17.10;99.90
17740;DHT22;8990;33.226;-97.150;2022-12-29T05:12:09;17.10;99.90
17740;DHT22;8990;33.226;-97.150;2022-12-29T05:14:47;17.10;99.90
17740;DHT22;8990;33.226;-97.150;2022-12-29T05:17:17;17.00;99.90
17740;DHT22;8990;33.226;-97.150;2022-12-29T05:19:47;17.00;99.90
17740;DHT22;8990;33.226;-97.150;2022-12-29T05:22:20;17.00;99.90
17740;DHT22;8990;33.226;-97.150;2022-12-29T05:24:49;17.00;99.90
17740;DHT22;8990;33.226;-97.150;2022-12-29T05:27:20;17.00;99.90
17740;DHT22;8990;33.226;-97.150;2022-12-29T05:30:16;16.90;99.90
17740;DHT22;8990;33.226;-97.150;2022-12-29T05:32:46;16.90;99.90
17740;DHT22;8990;33.226;-97.150;2022-12-29T05:35:19;16.90;99.90
17740;DHT22;8990;33.226;-97.150;2022-12-29T05:37:51;16.90;99.90
17740;DHT22;8990;33.226;-97.150;2022-12-29T05:40:20;16.90;99.90
17740;DHT22;8990;33.226;-97.150;2022-12-29T05:42:49;16.90;99.90
17740;DHT22;8990;33.226;-97.150;2022-12-29T05:45:37;16.90;99.90
17740;DHT22;8990;33.226;-97.150;2022-12-29T05:48:24;16.90;99.90
17740;DHT22;8990;33.226;-97.150;2022-12-29T05:51:14;16.90;99.90
17740;DHT22;8990;33.226;-97.150;2022-12-29T05:53:50;16.90;99.90
17740;DHT22;8990;33.226;-97.150;2022-12-29T05:56:20;16.90;99.90
17740;DHT22;8990;33.226;-97.150;2022-12-29T05:58:57;16.90;99.90
17740;DHT22;8990;33.226;-97.150;2022-12-29T06:01:27;16.80;99.90
17740;DHT22;8990;33.226;-97.150;2022-12-29T06:03:57;16.80;99.90
17740;DHT22;8990;33.226;-97.150;2022-12-29T06:06:26;16.80;99.90
17740;DHT22;8990;33.226;-97.150;2022-12-29T06:08:58;16.80;99.90
17740;DHT22;8990;33.226;-97.150;2022-12-29T06:11:29;16.90;99.90
17740;DHT22;8990;33.226;-97.150;2022-12-29T06:13:59;16.80;99.90
17740;DHT22;8990;33.226;-97.150;2022-12-29T06:16:29;16.80;99.90
17740;DHT22;8990;33.226;-97.150;2022-12-29T06:19:01;16.80;99.90
17740;DHT22;8990;33.226;-97.150;2022-12-29T06:21:31;16.70;99.90
17740;DHT22;8990;33.226;-97.150;2022-12-29T06:24:04;16.70;99.90
17740;DHT22;8990;33.226;-97.150;2022-12-29T06:26:35;16.70;99.90
17740;DHT22;8990;33.226;-97.150;2022-12-29T06:29:05;16.70;99.90
17740;DHT22;8990;33.226;-97.150;2022-12-29T06:31:36;16.70;99.90
17740;DHT22;8990;33.226;-97.150;2022-12-29T06:34:05;16.70;99.90
17740;DHT22;8990;33.226;-97.150;2022-12-29T06:36:37;16.70;99.90
17740;DHT22;8990;33.226;-97.150;2022-12-29T06:39:07;16.70;99.90
17740;DHT22;8990;33.226;-97.150;2022-12-29T06:41:38;16.70;99.90
17740;DHT22;8990;33.226;-97.150;2022-12-29T06:44:10;16.70;99.90
17740;DHT22;8990;33.226;-97.150;2022-12-29T06:47:01;16.60;99.90
17740;DHT22;8990;33.226;-97.150;2022-12-29T06:49:31;16.60;99.90
17740;DHT22;8990;33.226;-97.150;2022-12-29T06:52:02;16.60;99.90
17740;DHT22;8990;33.226;-97.150;2022-12-29T06:54:33;16.60;99.90
17740;DHT22;8990;33.226;-97.150;2022-12-29T06:57:02;16.60;99.90
17740;DHT22;8990;33.226;-97.150;2022-12-29T06:59:31;16.50;99.90
17740;DHT22;8990;33.226;-97.150;2022-12-29T07:02:01;16.50;99.90
17740;DHT22;8990;33.226;-97.150;2022-12-29T07:04:30;16.50;99.90
17740;DHT22;8990;33.226;-97.150;2022-12-29T07:06:59;16.50;99.90
17740;DHT22;8990;33.226;-97.150;2022-12-29T07:09:28;16.50;99.90
17740;DHT22;8990;33.226;-97.150;2022-12-29T07:11:59;16.50;99.90
17740;DHT22;8990;33.226;-97.150;2022-12-29T07:14:29;16.50;99.90
17740;DHT22;8990;33.226;-97.150;2022-12-29T07:16:59;16.50;99.90
17740;DHT22;8990;33.226;-97.150;2022-12-29T07:19:28;16.50;99.90
17740;DHT22;8990;33.226;-97.150;2022-12-29T07:21:58;16.50;99.90
17740;DHT22;8990;33.226;-97.150;2022-12-29T07:24:27;16.50;99.90
17740;DHT22;8990;33.226;-97.150;2022-12-29T07:26:59;16.50;99.90
17740;DHT22;8990;33.226;-97.150;2022-12-29T07:29:28;16.50;99.90
17740;DHT22;8990;33.226;-97.150;2022-12-29T07:31:58;16.60;99.90
17740;DHT22;8990;33.226;-97.150;2022-12-29T07:34:27;16.60;99.90
17740;DHT22;8990;33.226;-97.150;2022-12-29T07:36:57;16.60;99.90
17740;DHT22;8990;33.226;-97.150;2022-12-29T07:39:26;16.60;99.90
17740;DHT22;8990;33.226;-97.150;2022-12-29T07:41:55;16.60;99.90
17740;DHT22;8990;33.226;-97.150;2022-12-29T07:44:27;16.60;99.90
17740;DHT22;8990;33.226;-97.150;2022-12-29T07:47:16;16.60;99.90
17740;DHT22;8990;33.226;-97.150;2022-12-29T07:49:45;16.70;99.90
17740;DHT22;8990;33.226;-97.150;2022-12-29T07:52:15;16.60;99.90
17740;DHT22;8990;33.226;-97.150;2022-12-29T07:54:46;16.70;99.90
17740;DHT22;8990;33.226;-97.150;2022-12-29T07:57:15;16.70;99.90
17740;DHT22;8990;33.226;-97.150;2022-12-29T07:59:46;16.70;99.90
17740;DHT22;8990;33.226;-97.150;2022-12-29T08:02:15;16.70;99.90
17740;DHT22;8990;33.226;-97.150;2022-12-29T08:04:44;16.70;99.90
17740;DHT22;8990;33.226;-97.150;2022-12-29T08:07:15;16.80;99.90
17740;DHT22;8990;33.226;-97.150;2022-12-29T08:09:45;16.80;99.90
17740;DHT22;8990;33.226;-97.150;2022-12-29T08:12:16;16.90;99.90
17740;DHT22;8990;33.226;-97.150;2022-12-29T08:14:47;16.90;99.90
17740;DHT22;8990;33.226;-97.150;2022-12-29T08:17:17;16.90;99.90
17740;DHT22;8990;33.226;-97.150;2022-12-29T08:19:48;16.90;99.90
17740;DHT22;8990;33.226;-97.150;2022-12-29T08:22:18;17.00;99.90
17740;DHT22;8990;33.226;-97.150;2022-12-29T08:24:47;17.00;99.90
17740;DHT22;8990;33.226;-97.150;2022-12-29T08:27:16;16.90;99.90
17740;DHT22;8990;33.226;-97.150;2022-12-29T08:29:47;16.90;99.90
17740;DHT22;8990;33.226;-97.150;2022-12-29T08:32:17;16.90;99.90
17740;DHT22;8990;33.226;-97.150;2022-12-29T08:34:47;16.90;99.90
17740;DHT22;8990;33.226;-97.150;2022-12-29T08:37:17;16.90;99.90
17740;DHT22;8990;33.226;-97.150;2022-12-29T08:39:46;16.80;99.90
17740;DHT22;8990;33.226;-97.150;2022-12-29T08:42:16;16.90;99.90
17740;DHT22;8990;33.226;-97.150;2022-12-29T08:44:48;16.80;99.90
17740;DHT22;8990;33.226;-97.150;2022-12-29T08:47:17;16.90;99.90
17740;DHT22;8990;33.226;-97.150;2022-12-29T08:49:47;16.90;99.90
17740;DHT22;8990;33.226;-97.150;2022-12-29T08:52:16;16.90;99.90
17740;DHT22;8990;33.226;-97.150;2022-12-29T08:54:47;16.90;99.90
17740;DHT22;8990;33.226;-97.150;2022-12-29T08:57:16;16.90;99.90
17740;DHT22;8990;33.226;-97.150;2022-12-29T09:00:01;17.00;99.90
17740;DHT22;8990;33.226;-97.150;2022-12-29T09:02:30;17.00;99.90
17740;DHT22;8990;33.226;-97.150;2022-12-29T09:05:00;16.90;99.90
17740;DHT22;8990;33.226;-97.150;2022-12-29T09:07:29;16.90;99.90
17740;DHT22;8990;33.226;-97.150;2022-12-29T09:09:58;17.00;99.90
17740;DHT22;8990;33.226;-97.150;2022-12-29T09:12:28;17.00;99.90
17740;DHT22;8990;33.226;-97.150;2022-12-29T09:15:00;17.00;99.90
17740;DHT22;8990;33.226;-97.150;2022-12-29T09:17:29;17.00;99.90
17740;DHT22;8990;33.226;-97.150;2022-12-29T09:20:16;17.00;99.90
17740;DHT22;8990;33.226;-97.150;2022-12-29T09:22:47;17.00;99.90
17740;DHT22;8990;33.226;-97.150;2022-12-29T09:25:17;17.00;99.90
17740;DHT22;8990;33.226;-97.150;2022-12-29T09:27:46;17.00;99.90
17740;DHT22;8990;33.226;-97.150;2022-12-29T09:30:19;17.10;99.90
17740;DHT22;8990;33.226;-97.150;2022-12-29T09:32:48;17.10;99.90
17740;DHT22;8990;33.226;-97.150;2022-12-29T09:35:19;17.20;99.90
17740;DHT22;8990;33.226;-97.150;2022-12-29T09:37:49;17.20;99.90
17740;DHT22;8990;33.226;-97.150;2022-12-29T09:40:25;17.30;99.90
17740;DHT22;8990;33.226;-97.150;2022-12-29T09:45:54;17.20;99.90
17740;DHT22;8990;33.226;-97.150;2022-12-29T09:48:30;17.30;99.90
17740;DHT22;8990;33.226;-97.150;2022-12-29T09:51:08;17.30;99.90
17740;DHT22;8990;33.226;-97.150;2022-12-29T09:53:41;17.30;99.90
17740;DHT22;8990;33.226;-97.150;2022-12-29T09:56:16;17.30;99.90
17740;DHT22;8990;33.226;-97.150;2022-12-29T09:58:51;17.20;99.90
17740;DHT22;8990;33.226;-97.150;2022-12-29T10:01:30;17.30;99.90
17740;DHT22;8990;33.226;-97.150;2022-12-29T10:04:00;17.30;99.90
17740;DHT22;8990;33.226;-97.150;2022-12-29T10:06:37;17.30;99.90
17740;DHT22;8990;33.226;-97.150;2022-12-29T10:09:15;17.30;99.90
17740;DHT22;8990;33.226;-97.150;2022-12-29T10:11:57;17.30;99.90
17740;DHT22;8990;33.226;-97.150;2022-12-29T10:14:43;17.30;99.90
17740;DHT22;8990;33.226;-97.150;2022-12-29T10:17:28;17.30;99.90
17740;DHT22;8990;33.226;-97.150;2022-12-29T10:20:14;17.40;99.90
17740;DHT22;8990;33.226;-97.150;2022-12-29T10:23:09;17.40;99.90
17740;DHT22;8990;33.226;-97.150;2022-12-29T10:25:44;17.50;99.90
17740;DHT22;8990;33.226;-97.150;2022-12-29T10:28:19;17.50;99.90
17740;DHT22;8990;33.226;-97.150;2022-12-29T10:30:50;17.50;99.90
17740;DHT22;8990;33.226;-97.150;2022-12-29T10:33:26;17.50;99.90
17740;DHT22;8990;33.226;-97.150;2022-12-29T10:36:00;17.50;99.90
17740;DHT22;8990;33.226;-97.150;2022-12-29T10:38:37;17.50;99.90
17740;DHT22;8990;33.226;-97.150;2022-12-29T10:41:15;17.50;99.90
17740;DHT22;8990;33.226;-97.150;2022-12-29T10:43:46;17.40;99.90
17740;DHT22;8990;33.226;-97.150;2022-12-29T10:46:18;17.50;99.90
17740;DHT22;8990;33.226;-97.150;2022-12-29T10:48:50;17.40;99.90
17740;DHT22;8990;33.226;-97.150;2022-12-29T10:51:24;17.50;99.90
17740;DHT22;8990;33.226;-97.150;2022-12-29T10:53:57;17.50;99.90
17740;DHT22;8990;33.226;-97.150;2022-12-29T10:56:34;17.50;99.90
17740;DHT22;8990;33.226;-97.150;2022-12-29T10:59:15;17.40;99.90
17740;DHT22;8990;33.226;-97.150;2022-12-29T11:01:55;17.50;99.90
17740;DHT22;8990;33.226;-97.150;2022-12-29T11:04:40;17.50;99.90
17740;DHT22;8990;33.226;-97.150;2022-12-29T11:07:14;17.50;99.90
17740;DHT22;8990;33.226;-97.150;2022-12-29T11:09:46;17.50;99.90
17740;DHT22;8990;33.226;-97.150;2022-12-29T11:12:21;17.50;99.90
17740;DHT22;8990;33.226;-97.150;2022-12-29T11:15:13;17.50;99.90
17740;DHT22;8990;33.226;-97.150;2022-12-29T11:17:45;17.40;99.90
17740;DHT22;8990;33.226;-97.150;2022-12-29T11:20:38;17.40;99.90
17740;DHT22;8990;33.226;-97.150;2022-12-29T11:23:23;17.40;99.90
17740;DHT22;8990;33.226;-97.150;2022-12-29T11:26:14;17.40;99.90
17740;DHT22;8990;33.226;-97.150;2022-12-29T11:28:46;17.40;99.90
17740;DHT22;8990;33.226;-97.150;2022-12-29T11:31:22;17.40;99.90
17740;DHT22;8990;33.226;-97.150;2022-12-29T11:33:53;17.40;99.90
17740;DHT22;8990;33.226;-97.150;2022-12-29T11:36:24;17.40;99.90
17740;DHT22;8990;33.226;-97.150;2022-12-29T11:38:56;17.30;99.90
17740;DHT22;8990;33.226;-97.150;2022-12-29T11:41:28;17.30;99.90
17740;DHT22;8990;33.226;-97.150;2022-12-29T11:43:59;17.30;99.90
17740;DHT22;8990;33.226;-97.150;2022-12-29T11:46:32;17.30;99.90
17740;DHT22;8990;33.226;-97.150;2022-12-29T11:49:02;17.20;99.90
17740;DHT22;8990;33.226;-97.150;2022-12-29T11:51:38;17.20;99.90
17740;DHT22;8990;33.226;-97.150;2022-12-29T11:54:16;17.10;99.90
17740;DHT22;8990;33.226;-97.150;2022-12-29T11:56:49;17.20;99.90
17740;DHT22;8990;33.226;-97.150;2022-12-29T11:59:38;17.10;99.90
17740;DHT22;8990;33.226;-97.150;2022-12-29T12:02:35;17.10;99.90
17740;DHT22;8990;33.226;-97.150;2022-12-29T12:05:24;17.10;99.90
17740;DHT22;8990;33.226;-97.150;2022-12-29T12:08:02;17.10;99.90
17740;DHT22;8990;33.226;-97.150;2022-12-29T12:10:35;17.10;99.90
17740;DHT22;8990;33.226;-97.150;2022-12-29T12:13:17;17.00;99.90
17740;DHT22;8990;33.226;-97.150;2022-12-29T12:15:54;17.00;99.90
17740;DHT22;8990;33.226;-97.150;2022-12-29T12:18:34;17.00;99.90
17740;DHT22;8990;33.226;-97.150;2022-12-29T12:21:13;17.00;99.90
17740;DHT22;8990;33.226;-97.150;2022-12-29T12:26:53;16.90;99.90
17740;DHT22;8990;33.226;-97.150;2022-12-29T12:29:31;16.90;99.90
17740;DHT22;8990;33.226;-97.150;2022-12-29T12:32:11;16.90;99.90
17740;DHT22;8990;33.226;-97.150;2022-12-29T12:34:44;16.90;99.90
17740;DHT22;8990;33.226;-97.150;2022-12-29T12:37:45;16.90;99.90
17740;DHT22;8990;33.226;-97.150;2022-12-29T12:40:37;16.90;99.90
17740;DHT22;8990;33.226;-97.150;2022-12-29T12:43:31;16.80;99.90
17740;DHT22;8990;33.226;-97.150;2022-12-29T12:46:14;16.80;99.90
17740;DHT22;8990;33.226;-97.150;2022-12-29T12:48:59;16.80;99.90
17740;DHT22;8990;33.226;-97.150;2022-12-29T12:51:38;16.70;99.90
17740;DHT22;8990;33.226;-97.150;2022-12-29T12:54:23;16.70;99.90
17740;DHT22;8990;33.226;-97.150;2022-12-29T12:57:07;16.60;99.90
17740;DHT22;8990;33.226;-97.150;2022-12-29T12:59:50;16.60;99.90
17740;DHT22;8990;33.226;-97.150;2022-12-29T13:02:36;16.60;99.90
17740;DHT22;8990;33.226;-97.150;2022-12-29T13:05:24;16.60;99.90
17740;DHT22;8990;33.226;-97.150;2022-12-29T13:11:11;16.60;99.90
17740;DHT22;8990;33.226;-97.150;2022-12-29T13:14:14;16.50;99.90
17740;DHT22;8990;33.226;-97.150;2022-12-29T13:16:49;16.60;99.90
17740;DHT22;8990;33.226;-97.150;2022-12-29T13:19:26;16.60;99.90
17740;DHT22;8990;33.226;-97.150;2022-12-29T13:22:05;16.50;99.90
17740;DHT22;8990;33.226;-97.150;2022-12-29T13:24:45;16.50;99.90
17740;DHT22;8990;33.226;-97.150;2022-12-29T13:27:23;16.50;99.90
17740;DHT22;8990;33.226;-97.150;2022-12-29T13:30:01;16.50;99.90
17740;DHT22;8990;33.226;-97.150;2022-12-29T13:32:41;16.50;99.90
17740;DHT22;8990;33.226;-97.150;2022-12-29T13:35:35;16.50;99.90
17740;DHT22;8990;33.226;-97.150;2022-12-29T13:38:13;16.50;99.90
17740;DHT22;8990;33.226;-97.150;2022-12-29T13:40:49;16.50;99.90
17740;DHT22;8990;33.226;-97.150;2022-12-29T13:43:20;16.50;99.90
17740;DHT22;8990;33.226;-97.150;2022-12-29T13:46:01;16.40;99.90
17740;DHT22;8990;33.226;-97.150;2022-12-29T13:48:37;16.40;99.90
17740;DHT22;8990;33.226;-97.150;2022-12-29T13:51:10;16.50;99.90
17740;DHT22;8990;33.226;-97.150;2022-12-29T13:54:00;16.50;99.90
17740;DHT22;8990;33.226;-97.150;2022-12-29T13:56:37;16.40;99.90
17740;DHT22;8990;33.226;-97.150;2022-12-29T13:59:15;16.40;99.90
17740;DHT22;8990;33.226;-97.150;2022-12-29T14:01:53;16.40;99.90
17740;DHT22;8990;33.226;-97.150;2022-12-29T14:04:28;16.40;99.90
17740;DHT22;8990;33.226;-97.150;2022-12-29T14:07:02;16.40;99.90
17740;DHT22;8990;33.226;-97.150;2022-12-29T14:09:43;16.30;99.90
17740;DHT22;8990;33.226;-97.150;2022-12-29T14:12:27;16.40;99.90
17740;DHT22;8990;33.226;-97.150;2022-12-29T14:15:14;16.40;99.90
17740;DHT22;8990;33.226;-97.150;2022-12-29T14:18:14;16.30;99.90
17740;DHT22;8990;33.226;-97.150;2022-12-29T14:20:52;16.30;99.90
17740;DHT22;8990;33.226;-97.150;2022-12-29T14:23:37;16.30;99.90
17740;DHT22;8990;33.226;-97.150;2022-12-29T14:26:13;16.30;99.90
17740;DHT22;8990;33.226;-97.150;2022-12-29T14:28:44;16.30;99.90
17740;DHT22;8990;33.226;-97.150;2022-12-29T14:31:34;16.30;99.90
17740;DHT22;8990;33.226;-97.150;2022-12-29T14:34:29;16.30;99.90
17740;DHT22;8990;33.226;-97.150;2022-12-29T14:36:59;16.30;99.90
17740;DHT22;8990;33.226;-97.150;2022-12-29T14:39:36;16.30;99.90
17740;DHT22;8990;33.226;-97.150;2022-12-29T14:42:13;16.30;99.90
17740;DHT22;8990;33.226;-97.150;2022-12-29T14:44:48;16.50;99.90
17740;DHT22;8990;33.226;-97.150;2022-12-29T14:47:22;16.30;99.90
17740;DHT22;8990;33.226;-97.150;2022-12-29T14:49:57;16.40;99.90
17740;DHT22;8990;33.226;-97.150;2022-12-29T14:52:33;16.40;99.90
17740;DHT22;8990;33.226;-97.150;2022-12-29T14:55:28;16.40;99.90
17740;DHT22;8990;33.226;-97.150;2022-12-29T14:58:01;16.40;99.90
17740;DHT22;8990;33.226;-97.150;2022-12-29T15:00:32;16.40;99.90
17740;DHT22;8990;33.226;-97.150;2022-12-29T15:03:05;16.40;99.90
17740;DHT22;8990;33.226;-97.150;2022-12-29T15:05:42;16.50;99.90
17740;DHT22;8990;33.226;-97.150;2022-12-29T15:08:16;16.50;99.90
17740;DHT22;8990;33.226;-97.150;2022-12-29T15:10:52;16.60;99.90
17740;DHT22;8990;33.226;-97.150;2022-12-29T15:13:31;16.60;99.90
17740;DHT22;8990;33.226;-97.150;2022-12-29T15:16:01;16.60;99.90
17740;DHT22;8990;33.226;-97.150;2022-12-29T15:18:33;16.60;99.90
17740;DHT22;8990;33.226;-97.150;2022-12-29T15:21:13;16.60;99.90
17740;DHT22;8990;33.226;-97.150;2022-12-29T15:23:44;16.60;99.90
17740;DHT22;8990;33.226;-97.150;2022-12-29T15:26:14;16.60;99.90
17740;DHT22;8990;33.226;-97.150;2022-12-29T15:28:51;16.60;99.90
17740;DHT22;8990;33.226;-97.150;2022-12-29T15:31:23;16.70;99.90
17740;DHT22;8990;33.226;-97.150;2022-12-29T15:33:54;16.70;99.90
17740;DHT22;8990;33.226;-97.150;2022-12-29T15:36:37;16.70;99.90
17740;DHT22;8990;33.226;-97.150;2022-12-29T15:39:18;16.70;99.90
17740;DHT22;8990;33.226;-97.150;2022-12-29T15:41:50;16.80;99.90
17740;DHT22;8990;33.226;-97.150;2022-12-29T15:44:34;16.90;99.90
17740;DHT22;8990;33.226;-97.150;2022-12-29T15:47:08;16.90;99.90
17740;DHT22;8990;33.226;-97.150;2022-12-29T15:49:42;16.90;99.90
17740;DHT22;8990;33.226;-97.150;2022-12-29T15:52:18;16.90;99.90
17740;DHT22;8990;33.226;-97.150;2022-12-29T15:54:49;17.00;99.90
17740;DHT22;8990;33.226;-97.150;2022-12-29T15:57:23;17.10;99.90
17740;DHT22;8990;33.226;-97.150;2022-12-29T15:59:53;17.10;99.90
17740;DHT22;8990;33.226;-97.150;2022-12-29T16:02:23;17.20;99.90
17740;DHT22;8990;33.226;-97.150;2022-12-29T16:04:53;17.30;99.90
17740;DHT22;8990;33.226;-97.150;2022-12-29T16:07:27;17.40;99.90
17740;DHT22;8990;33.226;-97.150;2022-12-29T16:10:00;17.50;99.90
17740;DHT22;8990;33.226;-97.150;2022-12-29T16:12:32;17.60;99.90
17740;DHT22;8990;33.226;-97.150;2022-12-29T16:15:04;17.70;99.90
17740;DHT22;8990;33.226;-97.150;2022-12-29T16:17:41;17.80;99.90
17740;DHT22;8990;33.226;-97.150;2022-12-29T16:20:39;17.90;99.90
17740;DHT22;8990;33.226;-97.150;2022-12-29T16:23:18;18.00;99.90
17740;DHT22;8990;33.226;-97.150;2022-12-29T16:25:50;18.20;99.90